Anchorage/Lake Hood Seaplane Base, Alaska
Current Conditions -  °F | °C
As of 4:53 AM on Thursday 29 Jan 2015 (Local Time) from PALH Reporting Station
Clear Clear  
Wind Chill:   Ceiling: Unl
Heat Index:   Visibility: 10mi
Dew Point:   Wind: 5mph
Humidity: 70%   Direction: 80°E
Pressure: 30.01"   Gusts: NA
Location:  61.18°N, 149.97°W
Report Text: PALH 291353Z 08004KT 10SM CLR M13/M17 A3001 RMK AO2 SLP163 T11281172
Loading
Personal Weather Stations






























Interactive Weather Map New forecast layout! Learn more

10-Day Weather Forecast

Advertisements
Track Severe Weather on mobile